sensor_id;sensor_type;location;lat;lon;timestamp;pressure;altitude;pressure_sealevel;temperature;humidity
72570;BME280;60594;50.204;8.844;2023-06-22T00:02:01;99924.84;;;21.59;72.91
72570;BME280;60594;50.204;8.844;2023-06-22T00:04:28;99868.69;;;21.53;72.98
72570;BME280;60594;50.204;8.844;2023-06-22T00:06:55;99869.56;;;21.67;72.66
72570;BME280;60594;50.204;8.844;2023-06-22T00:09:21;99877.53;;;21.68;72.38
72570;BME280;60594;50.204;8.844;2023-06-22T00:11:48;99892.13;;;21.67;72.57
72570;BME280;60594;50.204;8.844;2023-06-22T00:14:15;99891.56;;;21.72;73.04
72570;BME280;60594;50.204;8.844;2023-06-22T00:16:41;99906.41;;;21.76;72.82
72570;BME280;60594;50.204;8.844;2023-06-22T00:19:09;99923.94;;;21.80;72.23
72570;BME280;60594;50.204;8.844;2023-06-22T00:21:37;99950.53;;;21.91;71.75
72570;BME280;60594;50.204;8.844;2023-06-22T00:24:04;99963.69;;;21.94;72.48
72570;BME280;60594;50.204;8.844;2023-06-22T00:26:32;99984.38;;;22.01;71.63
72570;BME280;60594;50.204;8.844;2023-06-22T00:29:00;100009.28;;;22.05;71.68
72570;BME280;60594;50.204;8.844;2023-06-22T00:31:26;100013.78;;;21.91;71.81
72570;BME280;60594;50.204;8.844;2023-06-22T00:33:54;100026.94;;;21.94;72.27
72570;BME280;60594;50.204;8.844;2023-06-22T00:36:21;100039.69;;;21.94;72.90
72570;BME280;60594;50.204;8.844;2023-06-22T00:38:47;100052.41;;;21.93;72.71
72570;BME280;60594;50.204;8.844;2023-06-22T00:41:17;100063.47;;;21.92;73.44
72570;BME280;60594;50.204;8.844;2023-06-22T00:43:44;100070.56;;;21.93;72.96
72570;BME280;60594;50.204;8.844;2023-06-22T00:46:11;100081.63;;;21.91;73.00
72570;BME280;60594;50.204;8.844;2023-06-22T00:48:38;100086.19;;;21.84;73.07
72570;BME280;60594;50.204;8.844;2023-06-22T00:51:06;100090.91;;;21.76;73.46
72570;BME280;60594;50.204;8.844;2023-06-22T00:53:33;100092.50;;;21.70;73.70
72570;BME280;60594;50.204;8.844;2023-06-22T00:56:01;100102.16;;;21.73;74.00
72570;BME280;60594;50.204;8.844;2023-06-22T00:58:30;100107.38;;;21.74;74.30
72570;BME280;60594;50.204;8.844;2023-06-22T01:00:56;100097.78;;;21.72;74.58
72570;BME280;60594;50.204;8.844;2023-06-22T01:03:23;100114.22;;;21.70;74.52
72570;BME280;60594;50.204;8.844;2023-06-22T01:05:50;100116.25;;;21.68;74.26
72570;BME280;60594;50.204;8.844;2023-06-22T01:11:31;100139.22;;;21.66;75.48
72570;BME280;60594;50.204;8.844;2023-06-22T01:14:00;100139.34;;;21.58;75.83
72570;BME280;60594;50.204;8.844;2023-06-22T01:16:34;100141.22;;;21.57;76.13
72570;BME280;60594;50.204;8.844;2023-06-22T01:19:13;100149.53;;;21.56;76.10
72570;BME280;60594;50.204;8.844;2023-06-22T01:21:43;100151.63;;;21.54;76.05
72570;BME280;60594;50.204;8.844;2023-06-22T01:24:15;100185.31;;;21.45;76.98
72570;BME280;60594;50.204;8.844;2023-06-22T01:29:33;100225.66;;;20.98;81.02
72570;BME280;60594;50.204;8.844;2023-06-22T01:32:02;100237.13;;;21.00;83.91
72570;BME280;60594;50.204;8.844;2023-06-22T01:34:31;100244.88;;;20.74;89.07
72570;BME280;60594;50.204;8.844;2023-06-22T01:36:58;100243.53;;;20.41;91.42
72570;BME280;60594;50.204;8.844;2023-06-22T01:39:29;100248.34;;;20.16;91.58
72570;BME280;60594;50.204;8.844;2023-06-22T01:41:56;100194.88;;;20.18;97.09
72570;BME280;60594;50.204;8.844;2023-06-22T01:44:24;100098.75;;;20.22;97.53
72570;BME280;60594;50.204;8.844;2023-06-22T01:46:52;100058.50;;;20.19;97.41
72570;BME280;60594;50.204;8.844;2023-06-22T01:49:19;100045.13;;;20.03;97.77
72570;BME280;60594;50.204;8.844;2023-06-22T01:51:45;100050.34;;;20.04;97.34
72570;BME280;60594;50.204;8.844;2023-06-22T01:54:12;100051.13;;;19.98;99.58
72570;BME280;60594;50.204;8.844;2023-06-22T01:56:39;100012.78;;;19.80;100.00
72570;BME280;60594;50.204;8.844;2023-06-22T01:59:10;99983.47;;;19.55;100.00
72570;BME280;60594;50.204;8.844;2023-06-22T02:01:43;99976.56;;;19.52;100.00
72570;BME280;60594;50.204;8.844;2023-06-22T02:04:26;99986.38;;;19.53;100.00
72570;BME280;60594;50.204;8.844;2023-06-22T02:06:56;99998.78;;;19.48;100.00
72570;BME280;60594;50.204;8.844;2023-06-22T02:09:26;99999.13;;;19.45;100.00
72570;BME280;60594;50.204;8.844;2023-06-22T02:11:56;100018.25;;;19.43;100.00
72570;BME280;60594;50.204;8.844;2023-06-22T02:14:24;100041.09;;;19.55;100.00
72570;BME280;60594;50.204;8.844;2023-06-22T02:16:51;100059.56;;;19.66;100.00
72570;BME280;60594;50.204;8.844;2023-06-22T02:19:22;100074.50;;;19.77;100.00
72570;BME280;60594;50.204;8.844;2023-06-22T02:21:49;100063.31;;;19.80;98.69
72570;BME280;60594;50.204;8.844;2023-06-22T02:24:16;100045.41;;;19.79;100.00
72570;BME280;60594;50.204;8.844;2023-06-22T02:26:43;100040.38;;;19.76;100.00
72570;BME280;60594;50.204;8.844;2023-06-22T02:29:11;100031.03;;;19.64;100.00
72570;BME280;60594;50.204;8.844;2023-06-22T02:31:38;100027.03;;;19.60;100.00
72570;BME280;60594;50.204;8.844;2023-06-22T02:34:04;100017.97;;;19.53;100.00
72570;BME280;60594;50.204;8.844;2023-06-22T02:36:30;100014.91;;;19.56;100.00
72570;BME280;60594;50.204;8.844;2023-06-22T02:39:00;100007.78;;;19.55;100.00
72570;BME280;60594;50.204;8.844;2023-06-22T02:41:30;100010.03;;;19.51;100.00
72570;BME280;60594;50.204;8.844;2023-06-22T02:43:57;100013.41;;;19.53;100.00
72570;BME280;60594;50.204;8.844;2023-06-22T02:46:23;100003.25;;;19.55;100.00
72570;BME280;60594;50.204;8.844;2023-06-22T02:48:50;100011.53;;;19.54;100.00
72570;BME280;60594;50.204;8.844;2023-06-22T02:51:17;100015.91;;;19.55;100.00
72570;BME280;60594;50.204;8.844;2023-06-22T02:53:43;100014.72;;;19.57;100.00
72570;BME280;60594;50.204;8.844;2023-06-22T02:56:13;100011.06;;;19.50;100.00
72570;BME280;60594;50.204;8.844;2023-06-22T02:58:39;100024.78;;;19.63;99.98
72570;BME280;60594;50.204;8.844;2023-06-22T03:01:09;100028.44;;;19.70;99.25
72570;BME280;60594;50.204;8.844;2023-06-22T03:03:39;100035.81;;;19.76;98.72
72570;BME280;60594;50.204;8.844;2023-06-22T03:06:05;100031.22;;;19.77;99.07
72570;BME280;60594;50.204;8.844;2023-06-22T03:08:33;100015.38;;;19.74;99.48
72570;BME280;60594;50.204;8.844;2023-06-22T03:10:59;100005.56;;;19.73;100.00
72570;BME280;60594;50.204;8.844;2023-06-22T03:13:27;100008.47;;;19.71;100.00
72570;BME280;60594;50.204;8.844;2023-06-22T03:15:53;100016.56;;;19.71;100.00
72570;BME280;60594;50.204;8.844;2023-06-22T03:18:20;100023.97;;;19.77;98.80
72570;BME280;60594;50.204;8.844;2023-06-22T03:20:48;100016.69;;;19.78;97.97
72570;BME280;60594;50.204;8.844;2023-06-22T03:23:15;100012.28;;;19.77;97.58
72570;BME280;60594;50.204;8.844;2023-06-22T03:25:42;100010.63;;;19.76;97.79
72570;BME280;60594;50.204;8.844;2023-06-22T03:28:11;100016.56;;;19.71;97.98
72570;BME280;60594;50.204;8.844;2023-06-22T03:30:38;100006.03;;;19.62;98.01
72570;BME280;60594;50.204;8.844;2023-06-22T03:33:04;100001.75;;;19.53;99.64
72570;BME280;60594;50.204;8.844;2023-06-22T03:35:30;99993.53;;;19.46;100.00
72570;BME280;60594;50.204;8.844;2023-06-22T03:37:57;99995.75;;;19.43;100.00
72570;BME280;60594;50.204;8.844;2023-06-22T03:40:23;99995.66;;;19.36;100.00
72570;BME280;60594;50.204;8.844;2023-06-22T03:42:51;100002.91;;;19.36;100.00
72570;BME280;60594;50.204;8.844;2023-06-22T03:45:17;99987.28;;;19.46;100.00
72570;BME280;60594;50.204;8.844;2023-06-22T03:47:44;99999.03;;;19.53;100.00
72570;BME280;60594;50.204;8.844;2023-06-22T03:50:10;99996.78;;;19.42;100.00
72570;BME280;60594;50.204;8.844;2023-06-22T03:52:37;99988.78;;;19.48;100.00
72570;BME280;60594;50.204;8.844;2023-06-22T03:55:04;99997.06;;;19.47;100.00
72570;BME280;60594;50.204;8.844;2023-06-22T03:57:32;100002.66;;;19.45;100.00
72570;BME280;60594;50.204;8.844;2023-06-22T03:59:59;100006.44;;;19.59;100.00
72570;BME280;60594;50.204;8.844;2023-06-22T04:02:26;100004.84;;;19.64;100.00
72570;BME280;60594;50.204;8.844;2023-06-22T04:04:52;99996.81;;;19.71;100.00
72570;BME280;60594;50.204;8.844;2023-06-22T04:07:19;99993.34;;;19.77;100.00
72570;BME280;60594;50.204;8.844;2023-06-22T04:09:46;100000.16;;;19.73;100.00
72570;BME280;60594;50.204;8.844;2023-06-22T04:12:12;100004.75;;;19.87;100.00
72570;BME280;60594;50.204;8.844;2023-06-22T04:14:39;100000.38;;;19.86;100.00
72570;BME280;60594;50.204;8.844;2023-06-22T04:17:06;100006.22;;;19.89;100.00
72570;BME280;60594;50.204;8.844;2023-06-22T04:19:33;100011.53;;;19.97;100.00
72570;BME280;60594;50.204;8.844;2023-06-22T04:22:00;100006.50;;;20.09;99.76
72570;BME280;60594;50.204;8.844;2023-06-22T04:24:26;100015.13;;;20.13;99.99
72570;BME280;60594;50.204;8.844;2023-06-22T04:26:53;100018.28;;;20.02;100.00
72570;BME280;60594;50.204;8.844;2023-06-22T04:29:21;100021.06;;;20.08;100.00
72570;BME280;60594;50.204;8.844;2023-06-22T04:31:55;100019.31;;;20.15;100.00
72570;BME280;60594;50.204;8.844;2023-06-22T04:34:24;100015.41;;;20.18;100.00
72570;BME280;60594;50.204;8.844;2023-06-22T04:36:54;100004.47;;;20.26;100.00
72570;BME280;60594;50.204;8.844;2023-06-22T04:39:21;100006.97;;;20.27;99.88
72570;BME280;60594;50.204;8.844;2023-06-22T04:41:48;100013.25;;;20.28;100.00
72570;BME280;60594;50.204;8.844;2023-06-22T04:44:16;100017.50;;;20.37;100.00
72570;BME280;60594;50.204;8.844;2023-06-22T04:46:57;100029.00;;;20.39;100.00
72570;BME280;60594;50.204;8.844;2023-06-22T04:49:26;100023.66;;;20.45;99.30
72570;BME280;60594;50.204;8.844;2023-06-22T04:52:00;100025.63;;;20.51;98.05
72570;BME280;60594;50.204;8.844;2023-06-22T04:54:26;100024.38;;;20.54;98.42
72570;BME280;60594;50.204;8.844;2023-06-22T04:56:53;100018.13;;;20.53;99.59
72570;BME280;60594;50.204;8.844;2023-06-22T04:59:28;100026.31;;;20.60;98.55
72570;BME280;60594;50.204;8.844;2023-06-22T05:02:00;100017.06;;;20.69;97.96
72570;BME280;60594;50.204;8.844;2023-06-22T05:04:28;100025.44;;;20.74;97.09
72570;BME280;60594;50.204;8.844;2023-06-22T05:07:01;100017.78;;;20.77;96.63
72570;BME280;60594;50.204;8.844;2023-06-22T05:09:28;100014.84;;;20.79;97.01
72570;BME280;60594;50.204;8.844;2023-06-22T05:11:55;100016.09;;;20.76;97.06
72570;BME280;60594;50.204;8.844;2023-06-22T05:14:22;100015.34;;;20.68;97.02
72570;BME280;60594;50.204;8.844;2023-06-22T05:16:49;100005.84;;;20.72;98.10
72570;BME280;60594;50.204;8.844;2023-06-22T05:19:18;100003.81;;;20.80;99.51
72570;BME280;60594;50.204;8.844;2023-06-22T05:21:44;100010.66;;;20.76;97.99
72570;BME280;60594;50.204;8.844;2023-06-22T05:24:11;100003.91;;;20.87;97.30
72570;BME280;60594;50.204;8.844;2023-06-22T05:26:38;99997.72;;;20.93;97.40
72570;BME280;60594;50.204;8.844;2023-06-22T05:29:04;100009.94;;;21.03;96.88
72570;BME280;60594;50.204;8.844;2023-06-22T05:31:31;100009.47;;;21.00;95.81
72570;BME280;60594;50.204;8.844;2023-06-22T05:33:58;100017.78;;;20.98;95.95
72570;BME280;60594;50.204;8.844;2023-06-22T05:36:26;100019.22;;;20.94;96.12
72570;BME280;60594;50.204;8.844;2023-06-22T05:38:53;100008.44;;;20.80;98.08
72570;BME280;60594;50.204;8.844;2023-06-22T05:41:19;100012.03;;;20.66;100.00
72570;BME280;60594;50.204;8.844;2023-06-22T05:43:46;100012.03;;;20.66;100.00
72570;BME280;60594;50.204;8.844;2023-06-22T05:46:12;100010.00;;;20.53;100.00
72570;BME280;60594;50.204;8.844;2023-06-22T05:48:39;100007.34;;;20.60;100.00
72570;BME280;60594;50.204;8.844;2023-06-22T05:51:05;100001.19;;;20.66;100.00
72570;BME280;60594;50.204;8.844;2023-06-22T05:53:32;99998.53;;;20.72;100.00
72570;BME280;60594;50.204;8.844;2023-06-22T05:55:58;99985.97;;;20.65;100.00
72570;BME280;60594;50.204;8.844;2023-06-22T05:58:25;99998.53;;;20.72;100.00
72570;BME280;60594;50.204;8.844;2023-06-22T06:00:51;99997.31;;;20.75;100.00
72570;BME280;60594;50.204;8.844;2023-06-22T06:03:18;99995.69;;;20.80;100.00
72570;BME280;60594;50.204;8.844;2023-06-22T06:05:45;99993.72;;;20.89;100.00
72570;BME280;60594;50.204;8.844;2023-06-22T06:08:12;99998.75;;;20.92;100.00
72570;BME280;60594;50.204;8.844;2023-06-22T06:10:38;99995.97;;;21.06;100.00
72570;BME280;60594;50.204;8.844;2023-06-22T06:13:05;99996.50;;;21.16;98.36
72570;BME280;60594;50.204;8.844;2023-06-22T06:15:33;99991.34;;;21.00;99.85
72570;BME280;60594;50.204;8.844;2023-06-22T06:18:00;99996.44;;;21.10;98.13
72570;BME280;60594;50.204;8.844;2023-06-22T06:20:28;99990.38;;;21.08;100.00
72570;BME280;60594;50.204;8.844;2023-06-22T06:22:54;99993.94;;;21.08;100.00
72570;BME280;60594;50.204;8.844;2023-06-22T06:25:22;99988.50;;;21.08;100.00
72570;BME280;60594;50.204;8.844;2023-06-22T06:27:50;99987.97;;;21.19;100.00
72570;BME280;60594;50.204;8.844;2023-06-22T06:30:18;99986.97;;;21.27;100.00
72570;BME280;60594;50.204;8.844;2023-06-22T06:32:46;99982.53;;;21.40;99.05
72570;BME280;60594;50.204;8.844;2023-06-22T06:35:14;99976.09;;;21.48;99.51
72570;BME280;60594;50.204;8.844;2023-06-22T06:37:45;99983.19;;;21.49;97.54
72570;BME280;60594;50.204;8.844;2023-06-22T06:40:13;99979.50;;;21.56;98.90
72570;BME280;60594;50.204;8.844;2023-06-22T06:42:45;99975.16;;;21.62;99.07
72570;BME280;60594;50.204;8.844;2023-06-22T06:45:15;99976.88;;;21.69;98.40
72570;BME280;60594;50.204;8.844;2023-06-22T06:47:42;99967.13;;;21.75;96.55
72570;BME280;60594;50.204;8.844;2023-06-22T06:50:10;99968.44;;;21.85;94.97
72570;BME280;60594;50.204;8.844;2023-06-22T06:52:37;99968.66;;;21.90;96.57
72570;BME280;60594;50.204;8.844;2023-06-22T06:55:04;99967.47;;;21.99;95.00
72570;BME280;60594;50.204;8.844;2023-06-22T06:57:31;99967.53;;;22.12;94.26
72570;BME280;60594;50.204;8.844;2023-06-22T07:00:00;99968.38;;;22.19;92.79
72570;BME280;60594;50.204;8.844;2023-06-22T07:02:26;99967.59;;;22.25;92.81
72570;BME280;60594;50.204;8.844;2023-06-22T07:04:56;99960.94;;;22.41;89.55
72570;BME280;60594;50.204;8.844;2023-06-22T07:07:23;99958.50;;;22.52;90.83
72570;BME280;60594;50.204;8.844;2023-06-22T07:09:50;99957.88;;;22.50;91.41
72570;BME280;60594;50.204;8.844;2023-06-22T07:12:16;99961.03;;;22.54;90.94
72570;BME280;60594;50.204;8.844;2023-06-22T07:14:43;99959.75;;;22.56;90.45
72570;BME280;60594;50.204;8.844;2023-06-22T07:17:10;99962.94;;;22.66;90.32
72570;BME280;60594;50.204;8.844;2023-06-22T07:19:36;99960.22;;;22.73;90.45
72570;BME280;60594;50.204;8.844;2023-06-22T07:22:03;99958.16;;;22.81;89.44
72570;BME280;60594;50.204;8.844;2023-06-22T07:24:29;99943.53;;;22.95;89.03
72570;BME280;60594;50.204;8.844;2023-06-22T07:26:56;99953.78;;;23.07;86.72
72570;BME280;60594;50.204;8.844;2023-06-22T07:29:23;99950.22;;;23.06;89.27
72570;BME280;60594;50.204;8.844;2023-06-22T07:31:50;99942.25;;;23.11;88.26
72570;BME280;60594;50.204;8.844;2023-06-22T07:34:20;99935.78;;;23.12;85.83
72570;BME280;60594;50.204;8.844;2023-06-22T07:36:47;99944.34;;;23.16;86.78
72570;BME280;60594;50.204;8.844;2023-06-22T07:39:13;99937.06;;;23.23;89.27
72570;BME280;60594;50.204;8.844;2023-06-22T07:41:40;99944.59;;;23.21;88.17
72570;BME280;60594;50.204;8.844;2023-06-22T07:44:07;99943.56;;;23.22;87.59
72570;BME280;60594;50.204;8.844;2023-06-22T07:46:34;99932.03;;;23.33;88.09
72570;BME280;60594;50.204;8.844;2023-06-22T07:49:00;99938.72;;;23.43;83.88
72570;BME280;60594;50.204;8.844;2023-06-22T07:51:27;99943.31;;;23.49;85.30
72570;BME280;60594;50.204;8.844;2023-06-22T07:53:54;99928.25;;;23.53;86.88
72570;BME280;60594;50.204;8.844;2023-06-22T07:56:21;99934.28;;;23.55;86.46
72570;BME280;60594;50.204;8.844;2023-06-22T07:58:47;99932.59;;;23.67;86.20
72570;BME280;60594;50.204;8.844;2023-06-22T08:01:14;99924.63;;;23.72;83.04
72570;BME280;60594;50.204;8.844;2023-06-22T08:03:41;99923.16;;;23.76;85.32
72570;BME280;60594;50.204;8.844;2023-06-22T08:06:08;99920.19;;;23.91;84.61
72570;BME280;60594;50.204;8.844;2023-06-22T08:08:38;99915.56;;;23.98;84.33
72570;BME280;60594;50.204;8.844;2023-06-22T08:11:05;99921.38;;;24.08;84.57
72570;BME280;60594;50.204;8.844;2023-06-22T08:13:32;99917.81;;;24.14;82.79
72570;BME280;60594;50.204;8.844;2023-06-22T08:15:59;99912.97;;;24.16;83.47
72570;BME280;60594;50.204;8.844;2023-06-22T08:18:25;99907.66;;;24.27;79.60
72570;BME280;60594;50.204;8.844;2023-06-22T08:20:52;99919.38;;;24.34;83.23
72570;BME280;60594;50.204;8.844;2023-06-22T08:23:18;99908.00;;;24.44;81.67
72570;BME280;60594;50.204;8.844;2023-06-22T08:25:45;99898.06;;;24.56;79.01
72570;BME280;60594;50.204;8.844;2023-06-22T08:28:11;99903.06;;;24.65;80.01
72570;BME280;60594;50.204;8.844;2023-06-22T08:30:39;99901.31;;;24.77;80.59
72570;BME280;60594;50.204;8.844;2023-06-22T08:33:05;99903.69;;;24.92;78.43
72570;BME280;60594;50.204;8.844;2023-06-22T08:35:32;99898.63;;;24.95;79.20
72570;BME280;60594;50.204;8.844;2023-06-22T08:37:58;99895.38;;;25.05;79.64
72570;BME280;60594;50.204;8.844;2023-06-22T08:40:26;99895.72;;;25.15;78.16
72570;BME280;60594;50.204;8.844;2023-06-22T08:42:53;99890.16;;;25.28;75.55
72570;BME280;60594;50.204;8.844;2023-06-22T08:45:19;99893.47;;;25.36;74.83
72570;BME280;60594;50.204;8.844;2023-06-22T08:47:46;99885.56;;;25.46;75.06
72570;BME280;60594;50.204;8.844;2023-06-22T08:50:12;99881.41;;;25.62;75.65
72570;BME280;60594;50.204;8.844;2023-06-22T08:52:40;99876.94;;;25.67;74.89
72570;BME280;60594;50.204;8.844;2023-06-22T08:55:10;99887.47;;;25.82;74.98
72570;BME280;60594;50.204;8.844;2023-06-22T08:57:37;99878.25;;;26.01;74.10
72570;BME280;60594;50.204;8.844;2023-06-22T09:00:06;99875.78;;;26.11;73.44
72570;BME280;60594;50.204;8.844;2023-06-22T09:02:41;99878.88;;;26.33;71.29
72570;BME280;60594;50.204;8.844;2023-06-22T09:05:08;99868.63;;;26.40;72.43
72570;BME280;60594;50.204;8.844;2023-06-22T09:07:34;99868.47;;;26.53;70.30
72570;BME280;60594;50.204;8.844;2023-06-22T09:10:01;99871.03;;;26.66;71.03
72570;BME280;60594;50.204;8.844;2023-06-22T09:12:31;99868.44;;;26.82;68.21
72570;BME280;60594;50.204;8.844;2023-06-22T09:14:59;99865.47;;;26.95;65.40
72570;BME280;60594;50.204;8.844;2023-06-22T09:17:26;99868.00;;;27.08;66.58
72570;BME280;60594;50.204;8.844;2023-06-22T09:19:53;99850.59;;;27.14;62.21
72570;BME280;60594;50.204;8.844;2023-06-22T09:22:19;99849.22;;;27.23;64.44
72570;BME280;60594;50.204;8.844;2023-06-22T09:24:46;99857.88;;;27.43;64.93
72570;BME280;60594;50.204;8.844;2023-06-22T09:27:13;99859.53;;;27.67;64.01
72570;BME280;60594;50.204;8.844;2023-06-22T09:29:40;99858.88;;;27.88;62.50
72570;BME280;60594;50.204;8.844;2023-06-22T09:32:07;99844.00;;;27.96;63.62
72570;BME280;60594;50.204;8.844;2023-06-22T09:34:33;99840.41;;;28.23;64.41
72570;BME280;60594;50.204;8.844;2023-06-22T09:37:00;99841.72;;;28.49;59.54
72570;BME280;60594;50.204;8.844;2023-06-22T09:39:29;99842.25;;;28.62;57.87
72570;BME280;60594;50.204;8.844;2023-06-22T09:41:58;99842.84;;;28.81;59.94
72570;BME280;60594;50.204;8.844;2023-06-22T09:44:26;99838.31;;;29.03;60.26
72570;BME280;60594;50.204;8.844;2023-06-22T09:46:52;99826.31;;;29.26;57.77
72570;BME280;60594;50.204;8.844;2023-06-22T09:49:19;99828.81;;;29.49;58.75
72570;BME280;60594;50.204;8.844;2023-06-22T09:51:45;99821.56;;;29.59;58.51
72570;BME280;60594;50.204;8.844;2023-06-22T09:54:12;99820.13;;;29.57;54.88
72570;BME280;60594;50.204;8.844;2023-06-22T09:56:38;99811.53;;;29.32;56.88
72570;BME280;60594;50.204;8.844;2023-06-22T09:59:05;99814.06;;;29.17;55.71
72570;BME280;60594;50.204;8.844;2023-06-22T10:01:31;99811.47;;;29.27;57.65
72570;BME280;60594;50.204;8.844;2023-06-22T10:03:58;99809.09;;;29.52;56.22
72570;BME280;60594;50.204;8.844;2023-06-22T10:06:24;99811.72;;;29.85;56.32
72570;BME280;60594;50.204;8.844;2023-06-22T10:08:54;99794.09;;;30.07;51.05
72570;BME280;60594;50.204;8.844;2023-06-22T10:11:20;99808.19;;;30.37;48.86
72570;BME280;60594;50.204;8.844;2023-06-22T10:13:49;99800.94;;;30.58;50.24
72570;BME280;60594;50.204;8.844;2023-06-22T10:16:15;99804.69;;;30.73;48.66
72570;BME280;60594;50.204;8.844;2023-06-22T10:18:42;99810.72;;;30.70;46.69
72570;BME280;60594;50.204;8.844;2023-06-22T10:21:08;99804.28;;;30.60;48.93
72570;BME280;60594;50.204;8.844;2023-06-22T10:23:35;99750.13;;;30.34;49.95
72570;BME280;60594;50.204;8.844;2023-06-22T10:26:05;99741.72;;;30.50;49.98
72570;BME280;60594;50.204;8.844;2023-06-22T10:28:32;99781.63;;;30.79;46.71
72570;BME280;60594;50.204;8.844;2023-06-22T10:30:58;99756.00;;;30.74;47.54
72570;BME280;60594;50.204;8.844;2023-06-22T10:33:25;99765.13;;;30.79;47.22
72570;BME280;60594;50.204;8.844;2023-06-22T10:35:51;99737.28;;;30.44;49.39
72570;BME280;60594;50.204;8.844;2023-06-22T10:38:18;99751.97;;;30.55;48.62
72570;BME280;60594;50.204;8.844;2023-06-22T10:40:45;99752.88;;;30.34;48.66
72570;BME280;60594;50.204;8.844;2023-06-22T10:43:12;99765.69;;;30.23;49.74
72570;BME280;60594;50.204;8.844;2023-06-22T10:45:38;99759.03;;;30.19;51.04
72570;BME280;60594;50.204;8.844;2023-06-22T10:48:04;99748.59;;;30.16;50.39
72570;BME280;60594;50.204;8.844;2023-06-22T10:50:31;99743.53;;;30.35;50.82
72570;BME280;60594;50.204;8.844;2023-06-22T10:52:57;99728.31;;;30.59;49.62
72570;BME280;60594;50.204;8.844;2023-06-22T10:55:24;99730.22;;;30.90;50.08
72570;BME280;60594;50.204;8.844;2023-06-22T10:57:50;99713.59;;;31.21;49.16
72570;BME280;60594;50.204;8.844;2023-06-22T11:00:18;99714.25;;;31.48;47.84
72570;BME280;60594;50.204;8.844;2023-06-22T11:02:45;99714.88;;;31.65;45.63
72570;BME280;60594;50.204;8.844;2023-06-22T11:05:11;99705.84;;;31.80;46.27
72570;BME280;60594;50.204;8.844;2023-06-22T11:07:42;99703.41;;;31.94;45.40
72570;BME280;60594;50.204;8.844;2023-06-22T11:10:09;99697.34;;;32.17;44.46
72570;BME280;60594;50.204;8.844;2023-06-22T11:12:36;99702.34;;;32.20;45.58
72570;BME280;60594;50.204;8.844;2023-06-22T11:15:04;99699.00;;;32.08;45.00
72570;BME280;60594;50.204;8.844;2023-06-22T11:17:31;99686.03;;;32.08;46.97
72570;BME280;60594;50.204;8.844;2023-06-22T11:19:57;99683.56;;;32.22;48.38
72570;BME280;60594;50.204;8.844;2023-06-22T11:22:26;99674.19;;;32.28;44.77
72570;BME280;60594;50.204;8.844;2023-06-22T11:24:53;99676.69;;;32.44;44.17
72570;BME280;60594;50.204;8.844;2023-06-22T11:27:19;99666.97;;;32.67;46.48
72570;BME280;60594;50.204;8.844;2023-06-22T11:29:46;99650.13;;;32.88;45.23
72570;BME280;60594;50.204;8.844;2023-06-22T11:32:12;99653.16;;;32.87;45.52
72570;BME280;60594;50.204;8.844;2023-06-22T11:34:39;99648.75;;;32.86;45.43
72570;BME280;60594;50.204;8.844;2023-06-22T11:37:06;99640.25;;;32.47;45.87
72570;BME280;60594;50.204;8.844;2023-06-22T11:39:32;99635.81;;;32.46;45.83
72570;BME280;60594;50.204;8.844;2023-06-22T11:41:59;99622.88;;;32.37;44.11
72570;BME280;60594;50.204;8.844;2023-06-22T11:44:26;99631.97;;;32.47;42.98
72570;BME280;60594;50.204;8.844;2023-06-22T11:46:52;99641.88;;;32.53;43.89
72570;BME280;60594;50.204;8.844;2023-06-22T11:49:19;99637.19;;;31.89;43.16
72570;BME280;60594;50.204;8.844;2023-06-22T11:51:45;99632.00;;;31.92;46.88
72570;BME280;60594;50.204;8.844;2023-06-22T11:54:11;99628.69;;;32.10;46.41
72570;BME280;60594;50.204;8.844;2023-06-22T11:56:38;99629.53;;;32.31;46.41
72570;BME280;60594;50.204;8.844;2023-06-22T11:59:04;99618.47;;;32.31;45.12
72570;BME280;60594;50.204;8.844;2023-06-22T12:01:31;99621.25;;;32.31;44.62
72570;BME280;60594;50.204;8.844;2023-06-22T12:03:59;99600.50;;;32.13;46.00
72570;BME280;60594;50.204;8.844;2023-06-22T12:06:25;99599.97;;;31.91;46.02
72570;BME280;60594;50.204;8.844;2023-06-22T12:08:52;99605.50;;;31.96;45.39
72570;BME280;60594;50.204;8.844;2023-06-22T12:11:18;99609.91;;;32.07;45.26
72570;BME280;60594;50.204;8.844;2023-06-22T12:13:45;99597.78;;;32.18;44.94
72570;BME280;60594;50.204;8.844;2023-06-22T12:16:11;99597.22;;;32.11;46.25
72570;BME280;60594;50.204;8.844;2023-06-22T12:18:38;99604.13;;;32.09;44.33
72570;BME280;60594;50.204;8.844;2023-06-22T12:21:05;99602.75;;;32.06;46.19
72570;BME280;60594;50.204;8.844;2023-06-22T12:23:31;99595.84;;;32.09;46.06
72570;BME280;60594;50.204;8.844;2023-06-22T12:25:58;99596.97;;;31.98;45.06
72570;BME280;60594;50.204;8.844;2023-06-22T12:28:25;99598.06;;;32.07;45.65
72570;BME280;60594;50.204;8.844;2023-06-22T12:30:52;99590.03;;;32.30;49.37
72570;BME280;60594;50.204;8.844;2023-06-22T12:33:18;99583.72;;;32.35;46.19
72570;BME280;60594;50.204;8.844;2023-06-22T12:35:45;99588.06;;;32.61;45.83
72570;BME280;60594;50.204;8.844;2023-06-22T12:38:13;99586.88;;;32.87;47.37
72570;BME280;60594;50.204;8.844;2023-06-22T12:40:39;99579.00;;;33.14;44.62
72570;BME280;60594;50.204;8.844;2023-06-22T12:43:06;99575.28;;;33.43;44.21
72570;BME280;60594;50.204;8.844;2023-06-22T12:45:34;99573.97;;;33.69;43.77
72570;BME280;60594;50.204;8.844;2023-06-22T12:48:00;99569.47;;;33.40;42.09
72570;BME280;60594;50.204;8.844;2023-06-22T12:50:27;99574.72;;;32.88;42.55
72570;BME280;60594;50.204;8.844;2023-06-22T12:52:53;99576.38;;;32.89;44.14
72570;BME280;60594;50.204;8.844;2023-06-22T12:55:20;99578.06;;;32.75;42.20
72570;BME280;60594;50.204;8.844;2023-06-22T12:57:46;99571.72;;;32.84;42.68
72570;BME280;60594;50.204;8.844;2023-06-22T13:00:13;99572.03;;;32.63;42.44
72570;BME280;60594;50.204;8.844;2023-06-22T13:02:40;99562.16;;;32.22;43.70